Terminal Aerodrome Forecast
Issued by NWS

Home | Current Version | Previous Version | Text Only | Print | Product List | Glossary On
Versions: 1 2 3 4 5 6 7 8 9 10 11 12 13 14 15 16 17
000
FTUS46 KLOX 251122
TAFBUR
TAF
KBUR 251122Z 2512/2612 VRB03KT P6SM SKC
     FM252100 17008KT P6SM BKN200
     FM260300 VRB03KT P6SM BKN150
     FM261000 VRB03KT P6SM SCT040 OVC080 PROB30 2610/2612 -RA=

USA.gov is the U.S. government's official web portal to all federal, state and local government web resources and services.